sensor_id;sensor_type;location;lat;lon;timestamp;pressure;altitude;pressure_sealevel;temperature;humidity
78857;BME280;68207;50.078;19.936;2023-03-01T00:01:55;100281.94;;;-1.41;66.42
78857;BME280;68207;50.078;19.936;2023-03-01T00:04:20;100274.36;;;-1.38;66.30
78857;BME280;68207;50.078;19.936;2023-03-01T00:06:46;100273.09;;;-1.37;66.48
78857;BME280;68207;50.078;19.936;2023-03-01T00:09:15;100272.15;;;-1.35;66.45
78857;BME280;68207;50.078;19.936;2023-03-01T00:11:41;100270.04;;;-1.35;66.74
78857;BME280;68207;50.078;19.936;2023-03-01T00:14:07;100273.83;;;-1.34;66.66
78857;BME280;68207;50.078;19.936;2023-03-01T00:16:34;100273.92;;;-1.32;66.47
78857;BME280;68207;50.078;19.936;2023-03-01T00:19:00;100268.85;;;-1.31;66.38
78857;BME280;68207;50.078;19.936;2023-03-01T00:21:26;100272.11;;;-1.30;66.37
78857;BME280;68207;50.078;19.936;2023-03-01T00:23:52;100272.02;;;-1.32;66.57
78857;BME280;68207;50.078;19.936;2023-03-01T00:26:20;100267.73;;;-1.33;66.58
78857;BME280;68207;50.078;19.936;2023-03-01T00:28:46;100260.32;;;-1.34;66.32
78857;BME280;68207;50.078;19.936;2023-03-01T00:31:14;100256.27;;;-1.37;66.44
78857;BME280;68207;50.078;19.936;2023-03-01T00:33:41;100258.41;;;-1.38;66.59
78857;BME280;68207;50.078;19.936;2023-03-01T00:36:08;100258.80;;;-1.39;66.36
78857;BME280;68207;50.078;19.936;2023-03-01T00:38:38;100265.59;;;-1.40;66.29
78857;BME280;68207;50.078;19.936;2023-03-01T00:41:05;100263.91;;;-1.41;66.53
78857;BME280;68207;50.078;19.936;2023-03-01T00:43:31;100259.15;;;-1.43;66.70
78857;BME280;68207;50.078;19.936;2023-03-01T00:46:02;100253.15;;;-1.45;66.56
78857;BME280;68207;50.078;19.936;2023-03-01T00:48:28;100249.61;;;-1.47;66.53
78857;BME280;68207;50.078;19.936;2023-03-01T00:50:53;100246.75;;;-1.49;66.56
78857;BME280;68207;50.078;19.936;2023-03-01T00:53:19;100249.31;;;-1.48;66.59
78857;BME280;68207;50.078;19.936;2023-03-01T00:55:44;100244.77;;;-1.43;66.67
78857;BME280;68207;50.078;19.936;2023-03-01T00:58:09;100241.65;;;-1.40;66.63
78857;BME280;68207;50.078;19.936;2023-03-01T01:00:35;100231.98;;;-1.40;67.06
78857;BME280;68207;50.078;19.936;2023-03-01T01:03:00;100228.77;;;-1.42;67.33
78857;BME280;68207;50.078;19.936;2023-03-01T01:05:26;100225.04;;;-1.44;67.43
78857;BME280;68207;50.078;19.936;2023-03-01T01:07:51;100222.44;;;-1.44;67.68
78857;BME280;68207;50.078;19.936;2023-03-01T01:10:16;100229.55;;;-1.44;67.82
78857;BME280;68207;50.078;19.936;2023-03-01T01:12:45;100226.90;;;-1.43;67.64
78857;BME280;68207;50.078;19.936;2023-03-01T01:15:11;100230.55;;;-1.43;67.60
78857;BME280;68207;50.078;19.936;2023-03-01T01:17:40;100228.70;;;-1.45;67.50
78857;BME280;68207;50.078;19.936;2023-03-01T01:20:06;100230.33;;;-1.46;67.45
78857;BME280;68207;50.078;19.936;2023-03-01T01:22:32;100229.58;;;-1.49;67.38
78857;BME280;68207;50.078;19.936;2023-03-01T01:24:57;100229.02;;;-1.52;67.72
78857;BME280;68207;50.078;19.936;2023-03-01T01:27:23;100223.05;;;-1.54;67.64
78857;BME280;68207;50.078;19.936;2023-03-01T01:29:48;100222.32;;;-1.53;67.71
78857;BME280;68207;50.078;19.936;2023-03-01T01:32:14;100218.08;;;-1.51;67.51
78857;BME280;68207;50.078;19.936;2023-03-01T01:34:39;100219.23;;;-1.50;67.54
78857;BME280;68207;50.078;19.936;2023-03-01T01:37:05;100218.17;;;-1.49;67.54
78857;BME280;68207;50.078;19.936;2023-03-01T01:39:33;100217.67;;;-1.50;67.73
78857;BME280;68207;50.078;19.936;2023-03-01T01:42:00;100215.35;;;-1.52;67.87
78857;BME280;68207;50.078;19.936;2023-03-01T01:44:27;100214.32;;;-1.52;67.77
78857;BME280;68207;50.078;19.936;2023-03-01T01:46:56;100211.22;;;-1.53;67.79
78857;BME280;68207;50.078;19.936;2023-03-01T01:49:27;100210.61;;;-1.55;67.77
78857;BME280;68207;50.078;19.936;2023-03-01T01:52:27;100203.10;;;-1.57;68.07
78857;BME280;68207;50.078;19.936;2023-03-01T01:55:09;100201.71;;;-1.61;68.15
78857;BME280;68207;50.078;19.936;2023-03-01T01:57:39;100201.56;;;-1.62;68.05
78857;BME280;68207;50.078;19.936;2023-03-01T02:00:16;100202.23;;;-1.65;68.02
78857;BME280;68207;50.078;19.936;2023-03-01T02:02:42;100199.92;;;-1.68;68.04
78857;BME280;68207;50.078;19.936;2023-03-01T02:05:25;100199.91;;;-1.72;68.07
78857;BME280;68207;50.078;19.936;2023-03-01T02:07:54;100198.36;;;-1.76;68.22
78857;BME280;68207;50.078;19.936;2023-03-01T02:10:22;100197.66;;;-1.81;68.23
78857;BME280;68207;50.078;19.936;2023-03-01T02:12:48;100199.92;;;-1.85;68.33
78857;BME280;68207;50.078;19.936;2023-03-01T02:15:14;100204.27;;;-1.85;68.38
78857;BME280;68207;50.078;19.936;2023-03-01T02:17:40;100208.30;;;-1.82;68.25
78857;BME280;68207;50.078;19.936;2023-03-01T02:23:11;100209.13;;;-1.81;68.45
78857;BME280;68207;50.078;19.936;2023-03-01T02:25:50;100214.66;;;-1.81;68.47
78857;BME280;68207;50.078;19.936;2023-03-01T02:28:24;100209.39;;;-1.83;68.38
78857;BME280;68207;50.078;19.936;2023-03-01T02:30:50;100208.30;;;-1.86;68.55
78857;BME280;68207;50.078;19.936;2023-03-01T02:33:36;100209.85;;;-1.90;68.41
78857;BME280;68207;50.078;19.936;2023-03-01T02:36:14;100210.71;;;-1.94;68.56
78857;BME280;68207;50.078;19.936;2023-03-01T02:38:41;100218.27;;;-1.97;68.64
78857;BME280;68207;50.078;19.936;2023-03-01T02:41:08;100217.88;;;-2.00;68.69
78857;BME280;68207;50.078;19.936;2023-03-01T02:43:35;100215.55;;;-2.02;68.83
78857;BME280;68207;50.078;19.936;2023-03-01T02:46:13;100207.95;;;-2.07;68.84
78857;BME280;68207;50.078;19.936;2023-03-01T02:48:45;100212.38;;;-2.10;68.83
78857;BME280;68207;50.078;19.936;2023-03-01T02:54:15;100208.33;;;-2.16;69.06
78857;BME280;68207;50.078;19.936;2023-03-01T02:56:44;100207.74;;;-2.18;69.29
78857;BME280;68207;50.078;19.936;2023-03-01T02:59:13;100206.27;;;-2.16;69.41
78857;BME280;68207;50.078;19.936;2023-03-01T03:01:39;100205.73;;;-2.12;69.51
78857;BME280;68207;50.078;19.936;2023-03-01T03:04:07;100210.25;;;-2.08;69.33
78857;BME280;68207;50.078;19.936;2023-03-01T03:06:32;100209.66;;;-2.07;69.18
78857;BME280;68207;50.078;19.936;2023-03-01T03:08:59;100207.34;;;-2.05;69.21
78857;BME280;68207;50.078;19.936;2023-03-01T03:11:24;100204.62;;;-2.06;69.19
78857;BME280;68207;50.078;19.936;2023-03-01T03:13:50;100197.73;;;-2.07;69.06
78857;BME280;68207;50.078;19.936;2023-03-01T03:16:17;100192.80;;;-2.09;69.19
78857;BME280;68207;50.078;19.936;2023-03-01T03:18:43;100192.92;;;-2.12;69.34
78857;BME280;68207;50.078;19.936;2023-03-01T03:21:10;100187.27;;;-2.17;69.42
78857;BME280;68207;50.078;19.936;2023-03-01T03:23:36;100190.42;;;-2.18;69.69
78857;BME280;68207;50.078;19.936;2023-03-01T03:26:03;100190.28;;;-2.19;69.49
78857;BME280;68207;50.078;19.936;2023-03-01T03:28:32;100187.27;;;-2.22;69.44
78857;BME280;68207;50.078;19.936;2023-03-01T03:30:59;100189.24;;;-2.24;69.35
78857;BME280;68207;50.078;19.936;2023-03-01T03:33:29;100185.66;;;-2.25;69.55
78857;BME280;68207;50.078;19.936;2023-03-01T03:35:54;100183.92;;;-2.25;69.50
78857;BME280;68207;50.078;19.936;2023-03-01T03:38:20;100191.39;;;-2.21;69.38
78857;BME280;68207;50.078;19.936;2023-03-01T03:40:54;100194.92;;;-2.18;69.42
78857;BME280;68207;50.078;19.936;2023-03-01T03:43:26;100194.55;;;-2.18;69.38
78857;BME280;68207;50.078;19.936;2023-03-01T03:45:52;100193.54;;;-2.18;69.39
78857;BME280;68207;50.078;19.936;2023-03-01T03:48:19;100191.64;;;-2.19;69.37
78857;BME280;68207;50.078;19.936;2023-03-01T03:51:03;100190.00;;;-2.21;69.35
78857;BME280;68207;50.078;19.936;2023-03-01T03:53:31;100194.77;;;-2.24;69.39
78857;BME280;68207;50.078;19.936;2023-03-01T03:55:56;100198.73;;;-2.28;69.30
78857;BME280;68207;50.078;19.936;2023-03-01T03:58:24;100201.07;;;-2.30;69.39
78857;BME280;68207;50.078;19.936;2023-03-01T04:00:54;100200.77;;;-2.31;69.32
78857;BME280;68207;50.078;19.936;2023-03-01T04:03:21;100194.30;;;-2.34;69.44
78857;BME280;68207;50.078;19.936;2023-03-01T04:05:48;100195.29;;;-2.36;69.61
78857;BME280;68207;50.078;19.936;2023-03-01T04:08:19;100197.15;;;-2.40;69.43
78857;BME280;68207;50.078;19.936;2023-03-01T04:10:51;100190.79;;;-2.45;69.59
78857;BME280;68207;50.078;19.936;2023-03-01T04:13:20;100187.75;;;-2.51;69.79
78857;BME280;68207;50.078;19.936;2023-03-01T04:15:50;100190.10;;;-2.54;69.90
78857;BME280;68207;50.078;19.936;2023-03-01T04:18:17;100193.14;;;-2.52;70.11
78857;BME280;68207;50.078;19.936;2023-03-01T04:20:44;100192.89;;;-2.50;70.14
78857;BME280;68207;50.078;19.936;2023-03-01T04:23:13;100194.75;;;-2.49;70.06
78857;BME280;68207;50.078;19.936;2023-03-01T04:28:20;100194.23;;;-2.49;70.19
78857;BME280;68207;50.078;19.936;2023-03-01T04:30:45;100193.00;;;-2.49;70.17
78857;BME280;68207;50.078;19.936;2023-03-01T04:33:11;100195.33;;;-2.50;70.26
78857;BME280;68207;50.078;19.936;2023-03-01T04:35:37;100194.83;;;-2.51;70.21
78857;BME280;68207;50.078;19.936;2023-03-01T04:38:04;100190.01;;;-2.51;70.22
78857;BME280;68207;50.078;19.936;2023-03-01T04:40:30;100190.27;;;-2.54;70.21
78857;BME280;68207;50.078;19.936;2023-03-01T04:42:55;100184.35;;;-2.57;70.21
78857;BME280;68207;50.078;19.936;2023-03-01T04:45:21;100179.77;;;-2.60;70.35
78857;BME280;68207;50.078;19.936;2023-03-01T04:47:47;100178.24;;;-2.65;70.56
78857;BME280;68207;50.078;19.936;2023-03-01T04:50:15;100174.95;;;-2.69;70.78
78857;BME280;68207;50.078;19.936;2023-03-01T04:52:41;100174.86;;;-2.71;70.99
78857;BME280;68207;50.078;19.936;2023-03-01T04:55:07;100175.80;;;-2.69;71.16
78857;BME280;68207;50.078;19.936;2023-03-01T04:57:33;100173.95;;;-2.66;71.02
78857;BME280;68207;50.078;19.936;2023-03-01T04:59:58;100168.64;;;-2.62;71.09
78857;BME280;68207;50.078;19.936;2023-03-01T05:02:23;100165.02;;;-2.63;71.14
78857;BME280;68207;50.078;19.936;2023-03-01T05:04:49;100171.41;;;-2.62;71.38
78857;BME280;68207;50.078;19.936;2023-03-01T05:07:14;100179.81;;;-2.65;71.44
78857;BME280;68207;50.078;19.936;2023-03-01T05:09:47;100181.73;;;-2.65;71.45
78857;BME280;68207;50.078;19.936;2023-03-01T05:12:13;100177.95;;;-2.66;71.50
78857;BME280;68207;50.078;19.936;2023-03-01T05:14:39;100176.27;;;-2.68;71.70
78857;BME280;68207;50.078;19.936;2023-03-01T05:17:05;100167.38;;;-2.70;71.67
78857;BME280;68207;50.078;19.936;2023-03-01T05:19:31;100160.52;;;-2.71;71.83
78857;BME280;68207;50.078;19.936;2023-03-01T05:21:57;100159.55;;;-2.69;71.85
78857;BME280;68207;50.078;19.936;2023-03-01T05:24:33;100158.73;;;-2.65;71.92
78857;BME280;68207;50.078;19.936;2023-03-01T05:27:00;100160.84;;;-2.61;71.87
78857;BME280;68207;50.078;19.936;2023-03-01T05:29:27;100166.44;;;-2.59;71.70
78857;BME280;68207;50.078;19.936;2023-03-01T05:31:57;100168.59;;;-2.56;71.58
78857;BME280;68207;50.078;19.936;2023-03-01T05:34:34;100173.27;;;-2.53;71.43
78857;BME280;68207;50.078;19.936;2023-03-01T05:37:01;100177.52;;;-2.47;71.32
78857;BME280;68207;50.078;19.936;2023-03-01T05:39:29;100179.61;;;-2.38;71.33
78857;BME280;68207;50.078;19.936;2023-03-01T05:41:56;100186.79;;;-2.28;71.18
78857;BME280;68207;50.078;19.936;2023-03-01T05:44:21;100190.42;;;-2.14;70.97
78857;BME280;68207;50.078;19.936;2023-03-01T05:46:47;100192.71;;;-2.03;70.74
78857;BME280;68207;50.078;19.936;2023-03-01T05:49:13;100194.75;;;-1.94;70.48
78857;BME280;68207;50.078;19.936;2023-03-01T05:51:43;100187.68;;;-1.90;70.27
78857;BME280;68207;50.078;19.936;2023-03-01T05:54:09;100183.20;;;-1.87;70.07
78857;BME280;68207;50.078;19.936;2023-03-01T05:56:36;100181.29;;;-1.87;70.05
78857;BME280;68207;50.078;19.936;2023-03-01T05:59:04;100178.43;;;-1.85;70.20
78857;BME280;68207;50.078;19.936;2023-03-01T06:01:33;100176.86;;;-1.80;70.21
78857;BME280;68207;50.078;19.936;2023-03-01T06:03:59;100180.21;;;-1.73;70.21
78857;BME280;68207;50.078;19.936;2023-03-01T06:06:25;100186.30;;;-1.65;70.21
78857;BME280;68207;50.078;19.936;2023-03-01T06:08:51;100187.34;;;-1.54;70.23
78857;BME280;68207;50.078;19.936;2023-03-01T06:11:16;100188.86;;;-1.37;70.08
78857;BME280;68207;50.078;19.936;2023-03-01T06:13:45;100178.46;;;-1.21;69.85
78857;BME280;68207;50.078;19.936;2023-03-01T06:16:11;100179.00;;;-1.06;69.70
78857;BME280;68207;50.078;19.936;2023-03-01T06:18:37;100180.55;;;-0.95;69.61
78857;BME280;68207;50.078;19.936;2023-03-01T06:21:03;100183.90;;;-0.85;69.61
78857;BME280;68207;50.078;19.936;2023-03-01T06:23:29;100191.30;;;-0.68;69.54
78857;BME280;68207;50.078;19.936;2023-03-01T06:25:54;100188.35;;;-0.50;69.40
78857;BME280;68207;50.078;19.936;2023-03-01T06:28:19;100190.16;;;-0.33;69.16
78857;BME280;68207;50.078;19.936;2023-03-01T06:30:45;100191.93;;;-0.16;68.90
78857;BME280;68207;50.078;19.936;2023-03-01T06:33:11;100194.07;;;0.04;68.61
78857;BME280;68207;50.078;19.936;2023-03-01T06:35:36;100188.03;;;0.23;68.37
78857;BME280;68207;50.078;19.936;2023-03-01T06:38:03;100185.91;;;0.45;68.10
78857;BME280;68207;50.078;19.936;2023-03-01T06:40:29;100185.70;;;0.66;67.94
78857;BME280;68207;50.078;19.936;2023-03-01T06:42:56;100184.11;;;0.86;67.39
78857;BME280;68207;50.078;19.936;2023-03-01T06:45:21;100177.34;;;1.05;66.52
78857;BME280;68207;50.078;19.936;2023-03-01T06:47:47;100177.05;;;1.23;66.09
78857;BME280;68207;50.078;19.936;2023-03-01T06:50:13;100179.69;;;1.42;65.40
78857;BME280;68207;50.078;19.936;2023-03-01T06:52:39;100181.27;;;1.60;64.84
78857;BME280;68207;50.078;19.936;2023-03-01T06:55:05;100183.68;;;1.79;64.50
78857;BME280;68207;50.078;19.936;2023-03-01T06:57:31;100186.79;;;1.98;63.97
78857;BME280;68207;50.078;19.936;2023-03-01T06:59:56;100181.23;;;2.18;63.53
78857;BME280;68207;50.078;19.936;2023-03-01T07:02:22;100176.65;;;2.39;63.25
78857;BME280;68207;50.078;19.936;2023-03-01T07:04:51;100175.15;;;2.56;62.56
78857;BME280;68207;50.078;19.936;2023-03-01T07:07:17;100170.23;;;2.76;62.31
78857;BME280;68207;50.078;19.936;2023-03-01T07:09:46;100168.46;;;3.02;61.53
78857;BME280;68207;50.078;19.936;2023-03-01T07:12:13;100163.21;;;3.22;60.61
78857;BME280;68207;50.078;19.936;2023-03-01T07:14:38;100165.67;;;3.38;60.44
78857;BME280;68207;50.078;19.936;2023-03-01T07:17:04;100165.91;;;3.57;59.92
78857;BME280;68207;50.078;19.936;2023-03-01T07:19:29;100162.05;;;3.57;58.78
78857;BME280;68207;50.078;19.936;2023-03-01T07:21:54;100154.36;;;3.62;59.02
78857;BME280;68207;50.078;19.936;2023-03-01T07:24:21;100149.02;;;3.66;58.39
78857;BME280;68207;50.078;19.936;2023-03-01T07:26:51;100143.29;;;3.76;58.14
78857;BME280;68207;50.078;19.936;2023-03-01T07:29:17;100135.62;;;3.81;57.83
78857;BME280;68207;50.078;19.936;2023-03-01T07:31:43;100128.23;;;3.95;57.59
78857;BME280;68207;50.078;19.936;2023-03-01T07:34:09;100127.84;;;4.16;57.58
78857;BME280;68207;50.078;19.936;2023-03-01T07:36:36;100126.24;;;4.30;56.88
78857;BME280;68207;50.078;19.936;2023-03-01T07:39:01;100124.58;;;4.47;56.78
78857;BME280;68207;50.078;19.936;2023-03-01T07:41:28;100136.05;;;4.70;56.56
78857;BME280;68207;50.078;19.936;2023-03-01T07:43:54;100136.65;;;4.99;55.98
78857;BME280;68207;50.078;19.936;2023-03-01T07:46:19;100139.92;;;5.27;55.23
78857;BME280;68207;50.078;19.936;2023-03-01T07:48:45;100141.02;;;5.50;54.79
78857;BME280;68207;50.078;19.936;2023-03-01T07:51:11;100144.11;;;5.80;54.57
78857;BME280;68207;50.078;19.936;2023-03-01T07:53:36;100147.06;;;6.18;54.34
78857;BME280;68207;50.078;19.936;2023-03-01T07:56:20;100147.82;;;6.61;53.17
78857;BME280;68207;50.078;19.936;2023-03-01T07:58:47;100148.61;;;7.09;52.51
78857;BME280;68207;50.078;19.936;2023-03-01T08:01:16;100148.26;;;7.46;51.80
78857;BME280;68207;50.078;19.936;2023-03-01T08:03:42;100145.79;;;7.77;50.70
78857;BME280;68207;50.078;19.936;2023-03-01T08:06:09;100144.58;;;8.02;50.22
78857;BME280;68207;50.078;19.936;2023-03-01T08:08:35;100141.30;;;8.22;49.60
78857;BME280;68207;50.078;19.936;2023-03-01T08:11:02;100134.95;;;8.41;48.90
78857;BME280;68207;50.078;19.936;2023-03-01T08:13:28;100131.92;;;8.46;48.05
78857;BME280;68207;50.078;19.936;2023-03-01T08:15:54;100131.31;;;8.65;47.86
78857;BME280;68207;50.078;19.936;2023-03-01T08:18:20;100125.99;;;8.86;47.26
78857;BME280;68207;50.078;19.936;2023-03-01T08:20:46;100128.80;;;8.98;46.76
78857;BME280;68207;50.078;19.936;2023-03-01T08:23:11;100124.98;;;9.13;46.31
78857;BME280;68207;50.078;19.936;2023-03-01T08:25:38;100126.98;;;9.41;46.31
78857;BME280;68207;50.078;19.936;2023-03-01T08:28:04;100130.58;;;9.83;46.13
78857;BME280;68207;50.078;19.936;2023-03-01T08:30:30;100123.17;;;10.22;45.09
78857;BME280;68207;50.078;19.936;2023-03-01T08:32:55;100122.77;;;10.58;44.51
78857;BME280;68207;50.078;19.936;2023-03-01T08:35:21;100118.25;;;10.92;44.05
78857;BME280;68207;50.078;19.936;2023-03-01T08:37:47;100119.39;;;11.19;43.08
78857;BME280;68207;50.078;19.936;2023-03-01T08:40:12;100112.90;;;11.33;41.75
78857;BME280;68207;50.078;19.936;2023-03-01T08:42:39;100106.58;;;11.29;41.33
78857;BME280;68207;50.078;19.936;2023-03-01T08:45:06;100103.45;;;11.41;41.81
78857;BME280;68207;50.078;19.936;2023-03-01T08:47:31;100099.75;;;11.66;41.31
78857;BME280;68207;50.078;19.936;2023-03-01T08:49:58;100101.67;;;11.98;41.36
78857;BME280;68207;50.078;19.936;2023-03-01T08:52:24;100096.72;;;12.32;40.91
78857;BME280;68207;50.078;19.936;2023-03-01T08:54:49;100093.36;;;12.64;40.34
78857;BME280;68207;50.078;19.936;2023-03-01T08:57:14;100095.36;;;12.91;39.38
78857;BME280;68207;50.078;19.936;2023-03-01T08:59:40;100093.25;;;13.13;38.84
78857;BME280;68207;50.078;19.936;2023-03-01T09:02:11;100098.39;;;13.35;38.46
78857;BME280;68207;50.078;19.936;2023-03-01T09:04:37;100103.57;;;13.51;37.26
78857;BME280;68207;50.078;19.936;2023-03-01T09:07:03;100107.61;;;13.43;36.71
78857;BME280;68207;50.078;19.936;2023-03-01T09:09:28;100106.29;;;13.49;36.52
78857;BME280;68207;50.078;19.936;2023-03-01T09:11:53;100105.40;;;13.49;36.06
78857;BME280;68207;50.078;19.936;2023-03-01T09:14:19;100105.90;;;13.48;35.56
78857;BME280;68207;50.078;19.936;2023-03-01T09:16:44;100100.42;;;13.41;35.82
78857;BME280;68207;50.078;19.936;2023-03-01T09:19:10;100099.16;;;13.49;35.59
78857;BME280;68207;50.078;19.936;2023-03-01T09:21:40;100098.54;;;13.63;35.64
78857;BME280;68207;50.078;19.936;2023-03-01T09:24:07;100095.17;;;13.89;35.63
78857;BME280;68207;50.078;19.936;2023-03-01T09:26:36;100092.13;;;14.18;35.28
78857;BME280;68207;50.078;19.936;2023-03-01T09:29:01;100094.97;;;14.41;34.91
78857;BME280;68207;50.078;19.936;2023-03-01T09:31:27;100092.88;;;14.62;33.85
78857;BME280;68207;50.078;19.936;2023-03-01T09:33:53;100096.27;;;14.44;32.89
78857;BME280;68207;50.078;19.936;2023-03-01T09:36:22;100093.45;;;14.28;32.63
78857;BME280;68207;50.078;19.936;2023-03-01T09:38:47;100091.20;;;14.21;33.11
78857;BME280;68207;50.078;19.936;2023-03-01T09:41:36;100090.94;;;14.29;32.65
78857;BME280;68207;50.078;19.936;2023-03-01T09:46:42;100091.13;;;14.41;32.55
78857;BME280;68207;50.078;19.936;2023-03-01T09:49:15;100089.19;;;14.65;32.83
78857;BME280;68207;50.078;19.936;2023-03-01T09:51:43;100089.45;;;15.02;33.01
78857;BME280;68207;50.078;19.936;2023-03-01T09:54:14;100090.18;;;15.31;32.15
78857;BME280;68207;50.078;19.936;2023-03-01T09:59:33;100083.67;;;15.84;31.52
78857;BME280;68207;50.078;19.936;2023-03-01T10:02:26;100085.02;;;16.08;31.43
78857;BME280;68207;50.078;19.936;2023-03-01T10:04:57;100086.35;;;16.34;31.22
78857;BME280;68207;50.078;19.936;2023-03-01T10:10:29;100079.80;;;16.71;30.22
78857;BME280;68207;50.078;19.936;2023-03-01T10:12:57;100079.06;;;16.57;30.25
78857;BME280;68207;50.078;19.936;2023-03-01T10:15:34;100078.04;;;16.71;30.53
78857;BME280;68207;50.078;19.936;2023-03-01T10:18:09;100071.39;;;16.95;29.98
78857;BME280;68207;50.078;19.936;2023-03-01T10:23:11;100070.88;;;17.38;29.42
78857;BME280;68207;50.078;19.936;2023-03-01T10:26:14;100071.55;;;17.57;29.13
78857;BME280;68207;50.078;19.936;2023-03-01T10:28:52;100059.52;;;17.78;28.75
78857;BME280;68207;50.078;19.936;2023-03-01T10:31:22;100058.08;;;17.89;28.47
78857;BME280;68207;50.078;19.936;2023-03-01T10:33:53;100054.83;;;17.96;28.26
78857;BME280;68207;50.078;19.936;2023-03-01T10:36:20;100058.05;;;18.05;28.21
78857;BME280;68207;50.078;19.936;2023-03-01T10:38:56;100058.14;;;18.21;28.28
78857;BME280;68207;50.078;19.936;2023-03-01T10:41:24;100057.73;;;18.38;28.04
78857;BME280;68207;50.078;19.936;2023-03-01T10:43:52;100055.14;;;18.49;27.62
78857;BME280;68207;50.078;19.936;2023-03-01T10:49:21;100052.13;;;18.44;26.69
78857;BME280;68207;50.078;19.936;2023-03-01T10:51:51;100051.45;;;18.42;26.95
78857;BME280;68207;50.078;19.936;2023-03-01T10:54:27;100053.30;;;18.45;26.78
78857;BME280;68207;50.078;19.936;2023-03-01T10:57:02;100052.67;;;18.47;26.45
78857;BME280;68207;50.078;19.936;2023-03-01T10:59:30;100050.84;;;18.49;26.48
78857;BME280;68207;50.078;19.936;2023-03-01T11:02:20;100047.58;;;18.57;26.63
78857;BME280;68207;50.078;19.936;2023-03-01T11:07:30;100043.50;;;18.96;25.85
78857;BME280;68207;50.078;19.936;2023-03-01T11:10:12;100033.53;;;19.05;25.54
78857;BME280;68207;50.078;19.936;2023-03-01T11:12:40;100030.64;;;19.17;25.48
78857;BME280;68207;50.078;19.936;2023-03-01T11:15:20;100027.05;;;19.26;24.66
78857;BME280;68207;50.078;19.936;2023-03-01T11:17:46;100022.57;;;19.26;24.78
78857;BME280;68207;50.078;19.936;2023-03-01T11:23:03;100018.26;;;19.29;24.71
78857;BME280;68207;50.078;19.936;2023-03-01T11:25:34;100020.86;;;19.33;24.45
78857;BME280;68207;50.078;19.936;2023-03-01T11:28:02;100019.92;;;19.38;24.70
78857;BME280;68207;50.078;19.936;2023-03-01T11:30:53;100021.23;;;19.39;24.38
78857;BME280;68207;50.078;19.936;2023-03-01T11:36:28;100018.02;;;19.39;24.24
78857;BME280;68207;50.078;19.936;2023-03-01T11:38:57;100014.54;;;19.34;24.18
78857;BME280;68207;50.078;19.936;2023-03-01T11:41:30;100012.28;;;19.31;24.31
78857;BME280;68207;50.078;19.936;2023-03-01T11:44:02;100006.63;;;19.30;24.42
78857;BME280;68207;50.078;19.936;2023-03-01T11:52:08;99998.86;;;19.62;24.61
78857;BME280;68207;50.078;19.936;2023-03-01T12:04:03;99982.85;;;20.31;25.10
78857;BME280;68207;50.078;19.936;2023-03-01T12:06:57;99981.52;;;20.61;24.61
78857;BME280;68207;50.078;19.936;2023-03-01T12:09:45;99976.94;;;20.88;24.19
78857;BME280;68207;50.078;19.936;2023-03-01T12:20:36;99972.72;;;21.45;23.40
78857;BME280;68207;50.078;19.936;2023-03-01T12:23:19;99972.71;;;21.70;23.10
78857;BME280;68207;50.078;19.936;2023-03-01T12:25:56;99967.49;;;21.91;22.89
78857;BME280;68207;50.078;19.936;2023-03-01T12:28:30;99964.80;;;22.03;22.45
78857;BME280;68207;50.078;19.936;2023-03-01T12:36:59;99954.13;;;22.31;21.76
78857;BME280;68207;50.078;19.936;2023-03-01T12:42:28;99948.75;;;22.59;20.84
78857;BME280;68207;50.078;19.936;2023-03-01T12:45:21;99939.08;;;22.61;20.74
78857;BME280;68207;50.078;19.936;2023-03-01T12:50:38;99930.80;;;22.69;20.73
78857;BME280;68207;50.078;19.936;2023-03-01T12:53:04;99931.53;;;22.85;20.36
78857;BME280;68207;50.078;19.936;2023-03-01T12:55:33;99929.62;;;22.86;19.43
78857;BME280;68207;50.078;19.936;2023-03-01T12:58:26;99927.13;;;22.75;19.28
78857;BME280;68207;50.078;19.936;2023-03-01T13:06:40;99920.30;;;22.26;19.75
78857;BME280;68207;50.078;19.936;2023-03-01T13:09:24;99919.24;;;22.17;19.71
78857;BME280;68207;50.078;19.936;2023-03-01T13:11:52;99917.24;;;22.17;19.56
78857;BME280;68207;50.078;19.936;2023-03-01T13:16:47;99923.77;;;22.20;19.99
78857;BME280;68207;50.078;19.936;2023-03-01T13:19:17;99919.85;;;22.26;19.86
78857;BME280;68207;50.078;19.936;2023-03-01T13:21:47;99918.83;;;22.24;19.76
78857;BME280;68207;50.078;19.936;2023-03-01T13:24:38;99917.27;;;22.20;19.84
78857;BME280;68207;50.078;19.936;2023-03-01T13:29:56;99913.11;;;22.11;19.93
78857;BME280;68207;50.078;19.936;2023-03-01T13:32:29;99910.54;;;22.02;20.00
78857;BME280;68207;50.078;19.936;2023-03-01T13:35:02;99911.84;;;21.97;20.30
78857;BME280;68207;50.078;19.936;2023-03-01T13:37:31;99914.83;;;21.92;20.49
78857;BME280;68207;50.078;19.936;2023-03-01T13:40:00;99916.21;;;21.82;20.84
78857;BME280;68207;50.078;19.936;2023-03-01T13:44:57;99906.63;;;21.78;20.84
78857;BME280;68207;50.078;19.936;2023-03-01T13:47:23;99900.89;;;21.73;20.57
78857;BME280;68207;50.078;19.936;2023-03-01T13:55:23;99889.88;;;21.59;20.51
78857;BME280;68207;50.078;19.936;2023-03-01T13:58:01;99887.50;;;21.51;20.57
78857;BME280;68207;50.078;19.936;2023-03-01T14:03:15;99875.87;;;21.52;20.10
78857;BME280;68207;50.078;19.936;2023-03-01T14:05:43;99875.80;;;21.40;20.18
78857;BME280;68207;50.078;19.936;2023-03-01T14:08:23;99877.52;;;21.22;20.30
78857;BME280;68207;50.078;19.936;2023-03-01T14:16:12;99866.81;;;20.98;20.65
78857;BME280;68207;50.078;19.936;2023-03-01T14:18:53;99863.88;;;20.97;20.63
78857;BME280;68207;50.078;19.936;2023-03-01T14:21:20;99864.30;;;20.90;20.38
78857;BME280;68207;50.078;19.936;2023-03-01T14:23:45;99862.88;;;20.77;20.39
78857;BME280;68207;50.078;19.936;2023-03-01T14:26:11;99860.23;;;20.67;20.64